Time;durP1;ratioP1;P1;durP2;ratioP2;P2;SDS_P1;SDS_P2;PMS_P1;PMS_P2;Temp;Humidity;BMP_temperature;BMP_pressure;BME280_temperature;BME280_humidity;BME280_pressure;Samples;Min_cycle;Max_cycle;Signal;HPM_P1;HPM_P2
2022/04/17 03:07:51;;;;;;;0.80;0.80;;;8.30;57.90;;;;;;4935404;29;20420;-71
2022/04/17 03:10:18;;;;;;;0.90;0.90;;;8.30;57.90;;;;;;4934760;29;21081;-71
2022/04/17 03:12:45;;;;;;;0.77;0.77;;;8.30;58.10;;;;;;4934701;29;21009;-70
2022/04/17 03:15:12;;;;;;;0.97;0.87;;;8.30;58.20;;;;;;5048773;23;20595;-76
2022/04/17 03:17:40;;;;;;;0.70;0.60;;;8.30;58.20;;;;;;4936052;29;20865;-76
2022/04/17 03:20:07;;;;;;;0.90;0.90;;;8.30;58.10;;;;;;4935993;29;20523;-76
2022/04/17 03:22:34;;;;;;;0.70;0.70;;;8.30;58.40;;;;;;4935711;29;20472;-76
2022/04/17 03:25:02;;;;;;;0.70;0.70;;;8.30;58.80;;;;;;4935914;29;20531;-76
2022/04/17 03:27:29;;;;;;;0.70;0.70;;;8.30;58.60;;;;;;4935953;29;20447;-76
2022/04/17 03:29:56;;;;;;;1.10;0.70;;;8.30;58.70;;;;;;4935920;29;20574;-76
2022/04/17 03:32:22;;;;;;;0.80;0.70;;;8.20;58.70;;;;;;4936062;29;20448;-76
2022/04/17 03:34:50;;;;;;;0.80;0.80;;;8.20;58.80;;;;;;4936009;29;20515;-75
2022/04/17 03:37:17;;;;;;;0.80;0.80;;;8.20;59.00;;;;;;4935963;29;20879;-76
2022/04/17 03:39:46;;;;;;;0.80;0.80;;;8.10;59.00;;;;;;4935835;29;20452;-76
2022/04/17 03:42:14;;;;;;;0.80;0.77;;;8.10;59.10;;;;;;4935795;29;20455;-76
2022/04/17 03:44:41;;;;;;;0.77;0.77;;;8.00;59.50;;;;;;4935384;29;20923;-76
2022/04/17 03:47:07;;;;;;;0.70;0.70;;;7.90;59.50;;;;;;4935366;29;20944;-76
2022/04/17 03:49:34;;;;;;;0.70;0.70;;;7.90;59.60;;;;;;4935656;29;20475;-76
2022/04/17 03:52:02;;;;;;;0.90;0.90;;;7.90;59.70;;;;;;4937779;29;20444;-76
2022/04/17 03:54:29;;;;;;;0.87;0.87;;;7.90;59.60;;;;;;4939212;29;20510;-76
2022/04/17 03:56:56;;;;;;;0.90;0.80;;;7.90;59.60;;;;;;4939207;29;20447;-76
2022/04/17 03:59:23;;;;;;;0.70;0.70;;;7.90;59.60;;;;;;4939189;29;20499;-76
2022/04/17 04:01:49;;;;;;;0.80;0.80;;;7.90;59.50;;;;;;4939120;29;20455;-76
2022/04/17 04:04:16;;;;;;;0.70;0.70;;;7.80;59.50;;;;;;4938719;29;20871;-75
2022/04/17 04:06:43;;;;;;;0.87;0.87;;;7.80;59.50;;;;;;4938995;29;20447;-76
2022/04/17 04:09:11;;;;;;;0.70;0.70;;;7.80;59.50;;;;;;4939012;29;20459;-76
2022/04/17 04:11:38;;;;;;;0.70;0.67;;;7.80;59.70;;;;;;4938614;29;20912;-76
2022/04/17 04:14:05;;;;;;;0.70;0.70;;;7.80;59.90;;;;;;4938933;29;20530;-76
2022/04/17 04:16:32;;;;;;;0.70;0.70;;;7.80;59.60;;;;;;4938383;29;20483;-76
2022/04/17 04:18:58;;;;;;;0.80;0.80;;;7.80;59.40;;;;;;4938753;29;20452;-76
2022/04/17 04:21:25;;;;;;;1.10;1.00;;;7.80;59.20;;;;;;4938757;29;20480;-76
2022/04/17 04:23:52;;;;;;;0.70;0.70;;;7.80;59.00;;;;;;4938349;29;20456;-76
2022/04/17 04:26:20;;;;;;;0.80;0.80;;;7.80;59.20;;;;;;4938612;29;20523;-76
2022/04/17 04:28:45;;;;;;;0.80;0.80;;;7.80;59.20;;;;;;4938638;29;20869;-76
2022/04/17 04:31:14;;;;;;;0.80;0.80;;;7.80;59.10;;;;;;4938445;29;20935;-76
2022/04/17 04:33:42;;;;;;;0.90;0.90;;;7.80;59.20;;;;;;4938215;29;20306;-76
2022/04/17 04:36:11;;;;;;;0.80;0.80;;;7.70;59.40;;;;;;4938431;29;20479;-76
2022/04/17 04:38:38;;;;;;;0.70;0.70;;;7.70;59.60;;;;;;4938441;29;20464;-76
2022/04/17 04:41:05;;;;;;;0.80;0.80;;;7.70;59.70;;;;;;4938417;29;20456;-76
2022/04/17 04:43:33;;;;;;;0.70;0.70;;;7.70;59.60;;;;;;4938052;29;20804;-76
2022/04/17 04:46:09;;;;;;;0.80;0.80;;;7.70;59.50;;;;;;4938000;29;20464;-76
2022/04/17 04:51:21;;;;;;;0.70;0.70;;;7.70;59.30;;;;;;4938008;29;20606;-76
2022/04/17 04:53:48;;;;;;;0.77;0.77;;;7.80;59.10;;;;;;4938157;29;20467;-76
2022/04/17 04:56:15;;;;;;;0.83;0.70;;;7.80;59.20;;;;;;4938118;29;20478;-76
2022/04/17 04:58:44;;;;;;;0.70;0.70;;;7.80;59.10;;;;;;4938092;29;20464;-76
2022/04/17 05:01:11;;;;;;;0.70;0.70;;;7.90;59.30;;;;;;4937995;29;20455;-76
2022/04/17 05:03:38;;;;;;;0.80;0.80;;;8.00;58.80;;;;;;4937078;29;20452;-76
2022/04/17 05:06:04;;;;;;;0.80;0.80;;;8.10;58.20;;;;;;4937945;29;20528;-76
2022/04/17 05:08:31;;;;;;;0.70;0.70;;;8.20;57.70;;;;;;4937910;29;20458;-76
2022/04/17 05:10:58;;;;;;;0.67;0.60;;;8.30;57.50;;;;;;4937789;29;20483;-76
2022/04/17 05:13:24;;;;;;;0.70;0.70;;;8.50;56.40;;;;;;4937859;29;20452;-76
2022/04/17 05:15:53;;;;;;;0.70;0.70;;;8.40;56.70;;;;;;4937624;29;20590;-76
2022/04/17 05:18:19;;;;;;;0.80;0.70;;;8.40;56.40;;;;;;4937673;29;20605;-76
2022/04/17 05:20:46;;;;;;;0.83;0.70;;;8.40;56.20;;;;;;4937725;29;20845;-76
2022/04/17 05:23:21;;;;;;;0.70;0.70;;;8.50;56.40;;;;;;4937679;29;20865;-76
2022/04/17 05:25:48;;;;;;;0.70;0.70;;;8.50;56.30;;;;;;4937547;29;20557;-76
2022/04/17 05:28:15;;;;;;;0.70;0.60;;;8.50;55.90;;;;;;4937221;29;21007;-76
2022/04/17 05:30:41;;;;;;;0.80;0.80;;;8.50;56.10;;;;;;4937429;29;20480;-76
2022/04/17 05:33:10;;;;;;;0.70;0.70;;;8.60;55.80;;;;;;4937448;29;20448;-76
2022/04/17 05:35:37;;;;;;;0.60;0.60;;;8.60;56.20;;;;;;4938203;29;20891;-76
2022/04/17 05:38:04;;;;;;;0.70;0.60;;;8.60;55.80;;;;;;4937121;29;20998;-76
2022/04/17 05:40:35;;;;;;;0.60;0.60;;;8.50;56.30;;;;;;4937279;29;20456;-75
2022/04/17 05:43:02;;;;;;;0.70;0.70;;;8.50;56.30;;;;;;4937343;29;20456;-76
2022/04/17 05:45:29;;;;;;;0.70;0.60;;;8.40;56.40;;;;;;4937202;29;20526;-76
2022/04/17 05:47:57;;;;;;;0.73;0.70;;;8.40;56.20;;;;;;4937139;29;20503;-76
2022/04/17 05:50:25;;;;;;;0.60;0.60;;;8.50;56.70;;;;;;4937136;29;20539;-76
2022/04/17 05:52:52;;;;;;;0.70;0.60;;;8.50;56.60;;;;;;4937066;29;20503;-75
2022/04/17 05:55:19;;;;;;;0.70;0.70;;;8.50;56.00;;;;;;4936932;29;20473;-76
2022/04/17 05:57:46;;;;;;;0.70;0.67;;;8.40;56.80;;;;;;4937037;29;20511;-76
2022/04/17 06:00:14;;;;;;;0.70;0.60;;;8.50;56.40;;;;;;4936971;29;20507;-76
2022/04/17 06:02:41;;;;;;;0.70;0.60;;;8.60;55.70;;;;;;4936920;29;20463;-76
2022/04/17 06:05:09;;;;;;;0.70;0.70;;;8.50;56.30;;;;;;4936836;29;20491;-76
2022/04/17 06:07:37;;;;;;;0.80;0.80;;;8.60;56.00;;;;;;4936852;29;20460;-76
2022/04/17 06:10:06;;;;;;;0.70;0.70;;;8.50;56.20;;;;;;4936400;29;20940;-76
2022/04/17 06:12:33;;;;;;;0.70;0.70;;;8.90;56.00;;;;;;4936775;29;20448;-76
2022/04/17 06:15:00;;;;;;;0.70;0.60;;;9.30;54.10;;;;;;4936335;29;20554;-76
2022/04/17 06:17:26;;;;;;;0.70;0.60;;;9.50;54.50;;;;;;4936701;29;20505;-76
2022/04/17 06:19:53;;;;;;;0.70;0.70;;;10.00;53.90;;;;;;4936608;29;20452;-76
2022/04/17 06:22:20;;;;;;;0.70;0.70;;;10.20;53.10;;;;;;4936304;29;21000;-75
2022/04/17 06:24:49;;;;;;;0.60;0.60;;;10.20;52.60;;;;;;4936155;29;20476;-76
2022/04/17 06:27:16;;;;;;;0.70;0.60;;;9.90;52.30;;;;;;4936520;29;20460;-76
2022/04/17 06:29:42;;;;;;;0.60;0.60;;;9.90;53.20;;;;;;4936542;29;20499;-76
2022/04/17 06:32:09;;;;;;;0.70;0.67;;;9.90;53.10;;;;;;4936093;29;20999;-76
2022/04/17 06:34:35;;;;;;;1.17;0.70;;;9.90;51.90;;;;;;4936064;29;20857;-76
2022/04/17 06:37:02;;;;;;;0.60;0.60;;;9.90;52.60;;;;;;4936122;29;20507;-76
2022/04/17 06:39:29;;;;;;;0.70;0.70;;;9.80;53.30;;;;;;4936378;29;20456;-76
2022/04/17 06:41:57;;;;;;;0.70;0.70;;;10.00;52.40;;;;;;4936272;29;20459;-76
2022/04/17 06:44:23;;;;;;;0.70;0.70;;;10.10;52.30;;;;;;4936220;29;20460;-76
2022/04/17 06:46:50;;;;;;;0.70;0.60;;;10.20;52.90;;;;;;4936315;29;20530;-76
2022/04/17 06:49:17;;;;;;;0.70;0.60;;;10.60;51.60;;;;;;4936288;29;20531;-76
2022/04/17 06:51:44;;;;;;;0.70;0.60;;;10.80;52.70;;;;;;4936176;29;20479;-76
2022/04/17 06:54:10;;;;;;;0.70;0.70;;;10.90;51.00;;;;;;4937005;29;20452;-76
2022/04/17 06:56:37;;;;;;;0.70;0.60;;;10.90;51.30;;;;;;4935813;29;20476;-76
2022/04/17 06:59:05;;;;;;;0.90;0.80;;;10.90;50.10;;;;;;4935854;29;20800;-76
2022/04/17 07:01:32;;;;;;;0.70;0.70;;;11.00;51.10;;;;;;4936317;29;20474;-76
2022/04/17 07:03:59;;;;;;;0.60;0.60;;;11.00;50.40;;;;;;4936092;29;20452;-76
2022/04/17 07:06:25;;;;;;;0.70;0.70;;;11.20;49.30;;;;;;4936016;29;20471;-76
2022/04/17 07:08:52;;;;;;;0.67;0.60;;;11.40;50.00;;;;;;4935990;29;20464;-76
2022/04/17 07:11:22;;;;;;;0.70;0.60;;;11.50;49.50;;;;;;4936053;29;20483;-76
2022/04/17 07:13:49;;;;;;;0.60;0.53;;;11.80;48.90;;;;;;4936051;29;20455;-76
2022/04/17 07:16:17;;;;;;;0.70;0.60;;;11.50;48.80;;;;;;4935818;29;20488;-76
2022/04/17 07:18:44;;;;;;;0.70;0.60;;;11.30;49.30;;;;;;4936070;29;20451;-76
2022/04/17 07:21:10;;;;;;;0.83;0.70;;;11.10;49.80;;;;;;4936227;29;20440;-76
2022/04/17 07:23:37;;;;;;;0.80;0.70;;;11.10;49.10;;;;;;4935703;29;20948;-76
2022/04/17 07:26:04;;;;;;;0.60;0.60;;;10.80;49.00;;;;;;4936320;29;20912;-76
2022/04/17 07:28:30;;;;;;;0.60;0.53;;;10.90;50.20;;;;;;4940284;29;20526;-76
2022/04/17 07:30:57;;;;;;;0.67;0.60;;;11.20;51.20;;;;;;4939641;29;20538;-76
2022/04/17 07:33:25;;;;;;;0.80;0.60;;;11.20;49.60;;;;;;4939632;29;20455;-76
2022/04/17 07:35:52;;;;;;;0.70;0.60;;;11.10;51.30;;;;;;4939519;29;20478;-76
2022/04/17 07:38:18;;;;;;;0.70;0.60;;;11.00;50.00;;;;;;4939257;29;20464;-76
2022/04/17 07:40:46;;;;;;;0.70;0.60;;;11.10;50.40;;;;;;4939459;29;20456;-76
2022/04/17 07:43:13;;;;;;;1.00;0.70;;;11.20;50.20;;;;;;4939335;29;20935;-76
2022/04/17 07:45:39;;;;;;;0.60;0.60;;;11.30;48.80;;;;;;4939071;29;20979;-76
2022/04/17 07:48:06;;;;;;;0.70;0.67;;;11.20;49.00;;;;;;4939322;29;20455;-76
2022/04/17 07:50:34;;;;;;;0.60;0.50;;;11.30;49.00;;;;;;4939243;29;20447;-76
2022/04/17 07:53:01;;;;;;;0.70;0.60;;;11.10;49.30;;;;;;4939278;29;20447;-75
2022/04/17 07:55:28;;;;;;;0.70;0.60;;;11.30;49.20;;;;;;4939163;29;20475;-76
2022/04/17 07:58:01;;;;;;;0.70;0.60;;;11.20;48.80;;;;;;4939275;29;20456;-76
2022/04/17 08:00:31;;;;;;;0.70;0.70;;;11.00;49.30;;;;;;4939374;29;20439;-75
2022/04/17 08:03:09;;;;;;;0.60;0.50;;;11.10;49.50;;;;;;4939144;29;20432;-76
2022/04/17 08:05:38;;;;;;;0.60;0.60;;;11.30;49.60;;;;;;4938746;29;20982;-76
2022/04/17 08:08:06;;;;;;;0.70;0.60;;;11.20;48.50;;;;;;4938895;29;20860;-76
2022/04/17 08:10:33;;;;;;;0.70;0.60;;;11.00;49.60;;;;;;4939807;29;20478;-76
2022/04/17 08:12:59;;;;;;;0.70;0.60;;;11.20;50.30;;;;;;4938822;29;21029;-76
2022/04/17 08:15:26;;;;;;;0.70;0.70;;;11.60;50.10;;;;;;4938593;29;20542;-76
2022/04/17 08:17:53;;;;;;;0.70;0.60;;;11.80;49.50;;;;;;4938767;29;20459;-76
2022/04/17 08:20:20;;;;;;;0.60;0.57;;;12.10;48.70;;;;;;4939075;29;20455;-76
2022/04/17 08:22:48;;;;;;;0.60;0.50;;;12.30;48.80;;;;;;4938782;29;20444;-76
2022/04/17 08:25:15;;;;;;;0.60;0.60;;;12.80;48.70;;;;;;4938525;29;20539;-76
2022/04/17 08:27:51;;;;;;;0.70;0.60;;;13.00;47.00;;;;;;4938622;29;20464;-76
2022/04/17 08:30:20;;;;;;;0.60;0.60;;;12.70;47.20;;;;;;4938614;29;20440;-76
2022/04/17 08:32:46;;;;;;;0.70;0.60;;;12.40;47.10;;;;;;4938427;29;20484;-76
2022/04/17 08:35:13;;;;;;;0.60;0.57;;;12.40;49.20;;;;;;4938442;29;20531;-76
2022/04/17 08:37:40;;;;;;;0.60;0.60;;;12.70;49.50;;;;;;4938538;29;20511;-76
2022/04/17 08:40:09;;;;;;;0.70;0.60;;;13.00;47.00;;;;;;4938365;29;20447;-76
2022/04/17 08:42:38;;;;;;;0.70;0.50;;;12.90;47.00;;;;;;4938488;29;20508;-76
2022/04/17 08:45:06;;;;;;;0.70;0.60;;;12.80;44.80;;;;;;4938305;29;20472;-76
2022/04/17 08:47:33;;;;;;;0.63;0.60;;;12.60;46.10;;;;;;4937911;29;20459;-76
2022/04/17 08:50:00;;;;;;;0.60;0.57;;;12.70;46.00;;;;;;4938219;29;20507;-76
2022/04/17 08:52:32;;;;;;;0.67;0.53;;;12.70;44.70;;;;;;4937819;29;21066;-76
2022/04/17 08:55:01;;;;;;;0.80;0.70;;;12.60;45.70;;;;;;4937809;29;21006;-76
2022/04/17 08:57:29;;;;;;;0.80;0.80;;;12.40;45.70;;;;;;4938085;29;20452;-76
2022/04/17 08:59:56;;;;;;;0.70;0.70;;;12.30;46.70;;;;;;4938029;29;20452;-76
2022/04/17 09:02:22;;;;;;;0.80;0.60;;;12.20;47.40;;;;;;4937935;29;20577;-76
2022/04/17 09:04:49;;;;;;;0.70;0.60;;;12.30;46.80;;;;;;4937925;29;20475;-76
2022/04/17 09:07:16;;;;;;;0.70;0.60;;;12.70;47.00;;;;;;4937623;29;20468;-76
2022/04/17 09:09:49;;;;;;;0.70;0.60;;;12.80;45.80;;;;;;4937855;29;20839;-76
2022/04/17 09:12:18;;;;;;;0.70;0.60;;;13.00;46.00;;;;;;4937806;29;20467;-76
2022/04/17 09:17:29;;;;;;;0.60;0.53;;;13.00;44.30;;;;;;4879653;27;21009;-72
2022/04/17 09:19:56;;;;;;;0.70;0.60;;;12.90;44.80;;;;;;4880596;29;20530;-72
2022/04/17 09:22:23;;;;;;;0.60;0.60;;;12.90;44.00;;;;;;4880802;29;20450;-73
2022/04/17 09:24:49;;;;;;;0.80;0.50;;;12.90;45.10;;;;;;4880146;29;20507;-72
2022/04/17 09:27:16;;;;;;;0.70;0.60;;;13.20;45.20;;;;;;4880767;29;20954;-72
2022/04/17 09:29:43;;;;;;;0.60;0.60;;;13.40;44.60;;;;;;4880475;29;20486;-72
2022/04/17 09:32:11;;;;;;;0.67;0.60;;;13.30;43.60;;;;;;4880351;29;20546;-72
2022/04/17 09:34:49;;;;;;;0.70;0.57;;;13.00;43.40;;;;;;4880552;29;20455;-72
2022/04/17 09:37:17;;;;;;;0.80;0.60;;;13.10;43.40;;;;;;4880292;29;20542;-72
2022/04/17 09:39:44;;;;;;;0.70;0.70;;;13.20;42.90;;;;;;4879874;29;20958;-72
2022/04/17 09:42:11;;;;;;;1.77;0.60;;;13.20;42.10;;;;;;4880273;29;20503;-72
2022/04/17 09:44:45;;;;;;;0.70;0.60;;;13.20;43.90;;;;;;4880345;29;20458;-72
2022/04/17 09:47:16;;;;;;;0.60;0.50;;;13.40;44.50;;;;;;4880383;29;20529;-72
2022/04/17 09:49:58;;;;;;;0.60;0.60;;;13.50;44.50;;;;;;4879704;29;20507;-72
2022/04/17 09:52:28;;;;;;;0.60;0.50;;;13.60;44.50;;;;;;4880020;29;20490;-72
2022/04/17 09:54:55;;;;;;;0.70;0.60;;;13.50;41.70;;;;;;4879630;29;20943;-72
2022/04/17 09:57:30;;;;;;;0.60;0.60;;;13.40;39.60;;;;;;4879949;29;20458;-72
2022/04/17 09:59:57;;;;;;;0.60;0.50;;;13.40;40.70;;;;;;4879980;29;20450;-72
2022/04/17 10:02:25;;;;;;;0.70;0.50;;;13.50;42.00;;;;;;4879927;29;20454;-73
2022/04/17 10:04:53;;;;;;;0.70;0.60;;;13.50;42.70;;;;;;4880040;29;20455;-72
2022/04/17 10:07:24;;;;;;;0.70;0.50;;;13.70;42.50;;;;;;4880928;29;20973;-73
2022/04/17 10:09:51;;;;;;;0.60;0.50;;;13.50;39.80;;;;;;4879481;29;20803;-73
2022/04/17 10:12:19;;;;;;;0.60;0.50;;;13.40;41.40;;;;;;4879765;29;20522;-72
2022/04/17 10:14:49;;;;;;;0.60;0.60;;;13.30;41.90;;;;;;4879242;29;20541;-72
2022/04/17 10:17:19;;;;;;;0.60;0.60;;;13.60;42.60;;;;;;4879759;29;20565;-72
2022/04/17 10:19:47;;;;;;;0.60;0.60;;;13.90;43.30;;;;;;4879801;29;20458;-72
2022/04/17 10:22:18;;;;;;;0.70;0.70;;;14.10;42.80;;;;;;4879561;29;20447;-72
2022/04/17 10:24:51;;;;;;;0.60;0.50;;;14.10;41.00;;;;;;4879412;29;20475;-71
2022/04/17 10:27:21;;;;;;;0.60;0.53;;;14.20;40.90;;;;;;4879450;29;20439;-73
2022/04/17 10:29:54;;;;;;;0.60;0.60;;;14.30;41.70;;;;;;4879109;29;20455;-72
2022/04/17 10:33:02;;;;;;;0.70;0.50;;;14.70;42.70;;;;;;4879421;29;20470;-72
2022/04/17 10:35:40;;;;;;;0.70;0.50;;;14.50;39.60;;;;;;4851128;29;20486;-71
2022/04/17 10:38:25;;;;;;;0.60;0.50;;;14.70;41.60;;;;;;4878969;29;20474;-72
2022/04/17 10:40:59;;;;;;;0.70;0.50;;;15.00;40.30;;;;;;4879315;29;20844;-72
2022/04/17 10:43:33;;;;;;;0.60;0.50;;;15.00;39.80;;;;;;4879275;29;20509;-72
2022/04/17 10:46:13;;;;;;;0.60;0.50;;;14.90;40.00;;;;;;4879635;29;20553;-72
2022/04/17 10:48:45;;;;;;;0.60;0.50;;;14.80;40.10;;;;;;4879246;29;20499;-72
2022/04/17 10:51:16;;;;;;;0.60;0.50;;;14.70;39.40;;;;;;4879331;29;20522;-72
2022/04/17 10:53:59;;;;;;;0.60;0.50;;;14.70;40.80;;;;;;4879056;29;20486;-72
2022/04/17 10:56:28;;;;;;;0.63;0.50;;;14.50;39.90;;;;;;4879129;29;20549;-72
2022/04/17 10:58:57;;;;;;;0.60;0.60;;;14.70;42.20;;;;;;4878813;29;20954;-72
2022/04/17 11:01:52;;;;;;;0.60;0.60;;;14.90;41.40;;;;;;4878238;29;20518;-72
2022/04/17 11:04:21;;;;;;;0.70;0.53;;;15.20;40.50;;;;;;4878785;29;20541;-72
2022/04/17 11:06:52;;;;;;;0.70;0.60;;;15.20;38.40;;;;;;4879042;29;20482;-72
2022/04/17 11:09:22;;;;;;;0.60;0.50;;;15.00;37.70;;;;;;4878801;29;20833;-71
2022/04/17 11:11:50;;;;;;;0.80;0.70;;;14.90;39.10;;;;;;4878925;29;20526;-72
2022/04/17 11:14:20;;;;;;;0.60;0.60;;;15.20;40.60;;;;;;4878889;29;20450;-72
2022/04/17 11:16:49;;;;;;;0.67;0.50;;;15.50;40.90;;;;;;4878631;29;20555;-72
2022/04/17 11:19:18;;;;;;;0.70;0.60;;;15.80;39.80;;;;;;4878924;29;20458;-72
2022/04/17 11:21:46;;;;;;;0.60;0.50;;;16.10;39.00;;;;;;4878672;29;20829;-72
2022/04/17 11:24:13;;;;;;;0.60;0.50;;;16.00;37.70;;;;;;4878868;29;20526;-72
2022/04/17 11:27:11;;;;;;;0.60;0.50;;;15.80;38.30;;;;;;4878738;29;20483;-73
2022/04/17 11:29:44;;;;;;;0.60;0.50;;;16.00;39.10;;;;;;4878762;29;20455;-72
2022/04/17 11:32:49;;;;;;;0.60;0.60;;;16.10;37.40;;;;;;4878726;29;20943;-72
2022/04/17 11:35:18;;;;;;;0.60;0.60;;;16.00;37.70;;;;;;4878718;29;20475;-72
2022/04/17 11:37:54;;;;;;;0.83;0.60;;;16.20;37.90;;;;;;4878609;29;20527;-72
2022/04/17 11:40:22;;;;;;;0.73;0.50;;;16.50;39.30;;;;;;4878426;29;21027;-72
2022/04/17 11:42:51;;;;;;;0.60;0.50;;;16.70;38.40;;;;;;4878545;29;20462;-72
2022/04/17 11:45:20;;;;;;;0.60;0.60;;;16.80;37.00;;;;;;4878017;29;20474;-72
2022/04/17 11:47:48;;;;;;;0.60;0.60;;;16.70;38.20;;;;;;4878427;29;20962;-72
2022/04/17 11:50:22;;;;;;;1.27;0.60;;;16.40;37.60;;;;;;4878670;29;20458;-72
2022/04/17 11:52:52;;;;;;;0.60;0.50;;;16.60;39.60;;;;;;4878284;29;20487;-72
2022/04/17 11:55:25;;;;;;;0.60;0.60;;;16.60;39.20;;;;;;4878484;29;20486;-72
2022/04/17 11:57:54;;;;;;;0.63;0.60;;;16.40;39.00;;;;;;4878481;29;20529;-72
2022/04/17 12:00:20;;;;;;;0.60;0.50;;;16.30;39.40;;;;;;4878544;29;20465;-71
2022/04/17 12:02:47;;;;;;;0.60;0.50;;;16.40;39.70;;;;;;4878412;29;20470;-71
2022/04/17 12:05:16;;;;;;;0.70;0.70;;;16.40;39.10;;;;;;4878693;29;20566;-71
2022/04/17 12:07:44;;;;;;;0.60;0.50;;;16.50;40.80;;;;;;4878500;29;20462;-71
2022/04/17 12:10:13;;;;;;;0.60;0.50;;;16.90;40.50;;;;;;4878819;29;20466;-72
2022/04/17 12:12:41;;;;;;;0.60;0.50;;;17.50;39.80;;;;;;4879808;29;20550;-72
2022/04/17 12:15:11;;;;;;;0.60;0.50;;;17.80;38.00;;;;;;4882059;29;20527;-72
2022/04/17 12:17:38;;;;;;;0.70;0.60;;;17.80;38.00;;;;;;4882241;29;20443;-71
2022/04/17 12:20:08;;;;;;;0.60;0.53;;;17.90;37.30;;;;;;4882308;29;20458;-71
2022/04/17 12:22:35;;;;;;;0.60;0.60;;;18.20;38.40;;;;;;4881918;29;20887;-71
2022/04/17 12:25:03;;;;;;;0.60;0.50;;;18.30;37.50;;;;;;4881519;29;20506;-71
2022/04/17 12:27:29;;;;;;;0.60;0.60;;;18.40;38.20;;;;;;4881568;29;20518;-71
2022/04/17 12:29:57;;;;;;;0.70;0.60;;;18.60;36.60;;;;;;4881628;29;20450;-72
2022/04/17 12:32:27;;;;;;;0.60;0.50;;;19.00;38.20;;;;;;4881545;29;20486;-72
2022/04/17 12:35:04;;;;;;;0.60;0.50;;;19.00;37.40;;;;;;4881068;29;20913;-72
2022/04/17 12:37:33;;;;;;;0.60;0.50;;;19.00;37.30;;;;;;4881359;29;20435;-72
2022/04/17 12:40:14;;;;;;;0.70;0.60;;;18.70;37.60;;;;;;4881116;29;20557;-71
2022/04/17 12:42:41;;;;;;;0.60;0.60;;;18.60;37.40;;;;;;4881192;29;20442;-72
2022/04/17 12:45:09;;;;;;;0.60;0.50;;;18.70;35.80;;;;;;4881176;29;20849;-72
2022/04/17 12:47:39;;;;;;;0.60;0.60;;;18.80;36.20;;;;;;4881195;29;20450;-72
2022/04/17 12:50:06;;;;;;;0.70;0.70;;;18.90;36.80;;;;;;4881845;29;20775;-72
2022/04/17 12:52:33;;;;;;;0.60;0.60;;;18.60;37.30;;;;;;4881014;29;20538;-72
2022/04/17 12:55:07;;;;;;;0.60;0.60;;;18.60;36.40;;;;;;4880642;29;20986;-72
2022/04/17 12:57:34;;;;;;;0.60;0.60;;;18.30;35.70;;;;;;4881047;29;20434;-72
2022/04/17 13:00:01;;;;;;;0.60;0.60;;;18.50;36.70;;;;;;4880894;29;20465;-73
2022/04/17 13:02:29;;;;;;;0.60;0.50;;;18.90;36.00;;;;;;4880630;29;20461;-71
2022/04/17 13:04:59;;;;;;;0.67;0.53;;;18.80;36.60;;;;;;4880770;29;20638;-72
2022/04/17 13:07:32;;;;;;;0.60;0.50;;;18.40;35.60;;;;;;4880637;29;20451;-73
2022/04/17 13:10:01;;;;;;;0.60;0.57;;;18.40;37.00;;;;;;4881340;29;20531;-71
2022/04/17 13:12:33;;;;;;;0.60;0.50;;;18.40;36.20;;;;;;4880459;29;20465;-72
2022/04/17 13:15:00;;;;;;;0.70;0.60;;;18.30;35.50;;;;;;4880137;29;20892;-72
2022/04/17 13:17:27;;;;;;;1.03;0.60;;;18.30;38.30;;;;;;4880620;29;20442;-72
2022/04/17 13:19:54;;;;;;;0.60;0.50;;;18.00;36.60;;;;;;4880514;29;20869;-72
2022/04/17 13:22:22;;;;;;;0.70;0.60;;;18.00;37.00;;;;;;4880336;29;20447;-73
2022/04/17 13:24:48;;;;;;;0.60;0.50;;;17.70;35.80;;;;;;4879568;29;20451;-72
2022/04/17 13:27:15;;;;;;;0.60;0.60;;;17.50;36.50;;;;;;4880127;29;20511;-72
2022/04/17 13:29:44;;;;;;;0.60;0.50;;;18.00;37.70;;;;;;4880375;29;20451;-73
2022/04/17 13:32:11;;;;;;;0.60;0.50;;;18.40;36.60;;;;;;4880206;29;20461;-72
2022/04/17 13:34:38;;;;;;;0.60;0.50;;;18.40;36.30;;;;;;4880088;29;20585;-72
2022/04/17 13:39:50;;;;;;;0.90;0.60;;;18.30;35.70;;;;;;4880261;29;20414;-72
2022/04/17 13:42:17;;;;;;;1.00;0.60;;;18.50;37.20;;;;;;4880128;29;20510;-72
2022/04/17 13:44:44;;;;;;;0.70;0.70;;;18.60;36.60;;;;;;4880053;29;20454;-72
2022/04/17 13:47:10;;;;;;;0.60;0.50;;;19.00;37.70;;;;;;4879946;29;20451;-72
2022/04/17 13:49:37;;;;;;;0.70;0.60;;;18.50;35.80;;;;;;4879891;29;20511;-72
2022/04/17 13:52:04;;;;;;;0.60;0.50;;;18.50;34.40;;;;;;4879865;29;20894;-73
2022/04/17 13:54:32;;;;;;;0.70;0.60;;;18.70;35.40;;;;;;4879891;29;20534;-72
2022/04/17 13:57:00;;;;;;;0.60;0.50;;;18.90;35.50;;;;;;4880358;29;20482;-72
2022/04/17 13:59:27;;;;;;;0.60;0.50;;;18.80;35.50;;;;;;4879804;29;20518;-72
2022/04/17 14:01:54;;;;;;;0.60;0.60;;;18.60;34.40;;;;;;4879425;29;20514;-72
2022/04/17 14:04:21;;;;;;;0.60;0.50;;;18.30;35.20;;;;;;4879822;29;20451;-73
2022/04/17 14:06:48;;;;;;;0.70;0.60;;;18.30;35.20;;;;;;4879670;29;20474;-72
2022/04/17 14:09:16;;;;;;;0.70;0.70;;;18.50;36.10;;;;;;4880366;29;20857;-72
2022/04/17 14:11:43;;;;;;;0.70;0.60;;;18.90;35.40;;;;;;4879643;29;20545;-72
2022/04/17 14:14:11;;;;;;;0.60;0.50;;;19.20;35.80;;;;;;4879566;29;20593;-72
2022/04/17 14:16:38;;;;;;;0.70;0.60;;;19.20;34.80;;;;;;4879448;29;20538;-71
2022/04/17 14:19:05;;;;;;;0.60;0.50;;;18.90;34.30;;;;;;4879527;29;20454;-73
2022/04/17 14:21:32;;;;;;;0.60;0.50;;;18.90;33.40;;;;;;4879422;29;20454;-72
2022/04/17 14:23:58;;;;;;;0.70;0.60;;;18.80;33.60;;;;;;4879857;29;20529;-73
2022/04/17 14:26:25;;;;;;;0.60;0.50;;;18.90;34.50;;;;;;4879369;29;20478;-72
2022/04/17 14:28:52;;;;;;;0.60;0.60;;;19.40;34.90;;;;;;4879525;29;20454;-73
2022/04/17 14:31:20;;;;;;;0.60;0.53;;;19.90;33.60;;;;;;4879340;29;20458;-71
2022/04/17 14:33:47;;;;;;;0.60;0.60;;;20.10;32.10;;;;;;4879241;29;20585;-73
2022/04/17 14:36:14;;;;;;;0.70;0.63;;;20.00;32.70;;;;;;4878840;29;21011;-72
2022/04/17 14:38:40;;;;;;;0.60;0.50;;;20.10;33.30;;;;;;4879320;29;20544;-73
2022/04/17 14:41:07;;;;;;;0.60;0.60;;;20.00;33.50;;;;;;4879247;29;20541;-72
2022/04/17 14:43:36;;;;;;;0.80;0.57;;;20.20;32.40;;;;;;4879202;29;20446;-72
2022/04/17 14:46:03;;;;;;;0.60;0.53;;;20.30;32.70;;;;;;4878818;29;20479;-72
2022/04/17 14:48:31;;;;;;;0.60;0.60;;;20.70;32.00;;;;;;4878976;29;20454;-72
2022/04/17 14:50:58;;;;;;;0.60;0.60;;;20.90;31.40;;;;;;4878780;29;20493;-73
2022/04/17 14:53:25;;;;;;;0.60;0.50;;;21.10;30.40;;;;;;4879026;29;20553;-73
2022/04/17 14:55:53;;;;;;;0.67;0.63;;;21.30;30.60;;;;;;4879061;29;20467;-73
2022/04/17 14:58:20;;;;;;;0.60;0.50;;;22.00;29.60;;;;;;4879064;29;20510;-73
2022/04/17 15:00:46;;;;;;;0.60;0.50;;;23.20;28.90;;;;;;4879138;29;20454;-72
2022/04/17 15:03:13;;;;;;;0.70;0.60;;;24.50;26.70;;;;;;4878888;29;20506;-73
2022/04/17 15:05:41;;;;;;;0.60;0.60;;;25.60;26.50;;;;;;4878979;29;20470;-73
2022/04/17 15:08:08;;;;;;;0.70;0.60;;;25.80;26.30;;;;;;4878984;29;20536;-73
2022/04/17 15:10:36;;;;;;;0.70;0.50;;;26.00;25.80;;;;;;4878997;29;20575;-73
2022/04/17 15:13:04;;;;;;;0.60;0.50;;;26.30;26.20;;;;;;4878916;29;20533;-72
2022/04/17 15:18:01;;;;;;;0.70;0.60;;;25.60;25.90;;;;;;4897082;29;20538;-77
2022/04/17 15:20:27;;;;;;;0.60;0.50;;;24.90;26.70;;;;;;4898034;29;20438;-77
2022/04/17 15:22:55;;;;;;;0.60;0.50;;;24.90;27.00;;;;;;4898193;29;20505;-76
2022/04/17 15:25:22;;;;;;;0.60;0.50;;;24.40;27.40;;;;;;4898237;29;20501;-76
2022/04/17 15:27:49;;;;;;;0.60;0.50;;;23.30;27.30;;;;;;4917106;29;20463;-76
2022/04/17 15:30:16;;;;;;;0.60;0.50;;;22.90;27.90;;;;;;4916697;29;21044;-76
2022/04/17 15:32:44;;;;;;;0.60;0.50;;;22.90;27.40;;;;;;4916729;29;20452;-77
2022/04/17 15:35:11;;;;;;;0.63;0.50;;;23.10;27.10;;;;;;4916933;29;20575;-77
2022/04/17 15:37:38;;;;;;;0.70;0.60;;;22.90;27.90;;;;;;4917121;29;20564;-76
2022/04/17 15:40:07;;;;;;;0.70;0.60;;;22.40;28.20;;;;;;4918239;29;20453;-76
2022/04/17 15:42:34;;;;;;;0.60;0.50;;;21.30;30.10;;;;;;4916979;29;20479;-76
2022/04/17 15:48:00;;;;;;;0.70;0.60;;;20.10;31.00;;;;;;4918069;29;20571;-76
2022/04/17 15:50:30;;;;;;;0.70;0.60;;;19.80;31.30;;;;;;4920269;29;20932;-76
2022/04/17 15:52:59;;;;;;;0.67;0.60;;;19.20;31.50;;;;;;4920235;29;20937;-76
2022/04/17 15:55:27;;;;;;;0.60;0.60;;;18.90;32.10;;;;;;4920206;29;20568;-76
2022/04/17 15:57:54;;;;;;;0.80;0.60;;;18.80;32.30;;;;;;4920428;29;20551;-76
2022/04/17 16:00:21;;;;;;;0.70;0.60;;;18.50;33.40;;;;;;4920324;29;20480;-76
2022/04/17 16:02:47;;;;;;;0.60;0.50;;;18.40;33.50;;;;;;4920257;29;20484;-76
2022/04/17 16:05:14;;;;;;;0.60;0.50;;;18.60;33.50;;;;;;4920285;29;20508;-76
2022/04/17 16:07:41;;;;;;;0.60;0.50;;;18.20;33.00;;;;;;4920300;29;20529;-76
2022/04/17 16:10:08;;;;;;;0.60;0.50;;;18.10;33.30;;;;;;4920371;29;20508;-76
2022/04/17 16:12:36;;;;;;;0.60;0.60;;;17.60;34.70;;;;;;4937897;29;20464;-76
2022/04/17 16:15:04;;;;;;;0.60;0.53;;;17.30;35.10;;;;;;4937760;29;20491;-75
2022/04/17 16:17:31;;;;;;;0.60;0.60;;;17.10;35.90;;;;;;4937623;29;20480;-76